ASN logo
ASN Wikibase Occurrence # 78560
Last updated: 22 October 2019
This information is added by users of ASN. Neither ASN nor the Flight Safety Foundation are responsible for the completeness or correctness of this information. If you feel this information is incomplete or incorrect, you can submit corrected information.

Date:02-OCT-2010
Time:19:06
Type:Silhouette image of generic B734 model; specific model in this crash may look slightly different
Boeing 737-4Y0
Owner/operator:Corendon Airlines
Registration: TC-TJF
C/n / msn: 26078/2431
Fatalities:Fatalities: 0 / Occupants: 173
Other fatalities:0
Aircraft damage: Minor
Category:Serious incident
Location:Amsterdam-Schiphol International Airport (AMS/EHAM) -   Netherlands
Phase: Landing
Nature:International Non Scheduled Passenger
Departure airport:Dalaman (LTSB)
Destination airport:Amsterdam-Schiphol International Airport (AMS/EHAM)
Investigating agency: Dutch Safety Board
Narrative:
Flight CAI603 made a premature flare and landed long. Speed brakes did only partly extend.
The 737 came to rest at the end of the runway with the nose just over the edge on the grass.
Aircraft apears to have slightly overrun, or got a gear stuck besides runway.
The plane landed on runway 22 (LDA 6608ft/2014m).

Weather report about the time of the mishap (17:15 Z):

EHAM 021655Z 14009KT 2500 DZ FEW004 SCT007 BKN011 16/15 Q1007 REDZ TEMPO BKN007=
EHAM 021725Z 14007KT 110V170 3200 RADZ FEW003 SCT005 BKN00716/15 Q1007 RERADZ BECMG 6000=

Sources:

http://www.onderzoeksraad.nl/docs/rapporten/2010077_TC-TJF_NL.pdf

Accident investigation:
cover
  
Investigating agency: Dutch Safety Board
Status: Investigation completed
Duration:
Download report: Final report


Images:

Photo of TC-TJF courtesy AirHistory.net


Amsterdam - Schiphol (EHAM / AMS)
4 October 2012; (c) Gerard Helmer

Revision history:

Date/timeContributorUpdates
02-Oct-2010 14:47 Mauro Added
02-Oct-2010 14:48 Anon. Updated [Time, Aircraft type, Total occupants, Departure airport, Damage]
02-Oct-2010 14:58 Anon. Updated [Registration, Narrative]
02-Oct-2010 15:22 Anon. Updated [Aircraft type, Cn, Operator, Narrative]
02-Oct-2010 15:26 Anon. Updated [Narrative]
03-Aug-2012 11:03 harro Updated [Time, Location, Departure airport, Destination airport, Source, Narrative]

Corrections or additions? ... Edit this accident description